Time;durP1;ratioP1;P1;durP2;ratioP2;P2;SDS_P1;SDS_P2;PMS_P1;PMS_P2;Temp;Humidity;BMP_temperature;BMP_pressure;BME280_temperature;BME280_humidity;BME280_pressure;Samples;Min_cycle;Max_cycle;Signal;HPM_P1;HPM_P2
2023/03/21 00:02:12;;;;;;;4.87;3.20;;;7.70;99.90;;;;;;5057012;28;20213;-84
2023/03/21 00:04:38;;;;;;;3.73;3.07;;;7.80;99.90;;;;;;5055590;28;20182;-85
2023/03/21 00:07:03;;;;;;;5.47;3.23;;;7.80;99.90;;;;;;5056600;28;20205;-84
2023/03/21 00:09:29;;;;;;;5.93;3.03;;;7.70;99.90;;;;;;5057028;28;20192;-84
2023/03/21 00:11:55;;;;;;;5.43;2.77;;;7.70;99.90;;;;;;5056787;28;20574;-84
2023/03/21 00:14:22;;;;;;;5.90;3.00;;;7.70;99.90;;;;;;5056412;28;20180;-84
2023/03/21 00:16:51;;;;;;;4.43;3.17;;;7.70;99.90;;;;;;5056415;28;20174;-84
2023/03/21 00:19:19;;;;;;;7.30;3.13;;;7.70;99.90;;;;;;5055537;28;20229;-84
2023/03/21 00:21:45;;;;;;;5.07;3.30;;;7.70;99.90;;;;;;5055471;28;20225;-84
2023/03/21 00:24:11;;;;;;;6.20;3.30;;;7.70;99.90;;;;;;5054938;28;20170;-86
2023/03/21 00:26:37;;;;;;;5.10;3.40;;;7.70;99.90;;;;;;5055765;28;20223;-87
2023/03/21 00:29:02;;;;;;;6.23;3.60;;;7.70;99.90;;;;;;5056848;28;20200;-84
2023/03/21 00:31:28;;;;;;;7.40;3.10;;;7.60;99.90;;;;;;5055498;28;20191;-84
2023/03/21 00:33:53;;;;;;;5.40;3.27;;;7.70;99.90;;;;;;5055781;28;20265;-84
2023/03/21 00:36:20;;;;;;;4.80;2.90;;;7.70;99.90;;;;;;5055816;28;20201;-83
2023/03/21 00:38:46;;;;;;;5.07;3.20;;;7.70;99.90;;;;;;5055666;28;20175;-84
2023/03/21 00:41:15;;;;;;;6.23;2.80;;;7.70;99.90;;;;;;5056470;28;20215;-86
2023/03/21 00:43:40;;;;;;;5.10;3.30;;;7.70;99.90;;;;;;5054860;28;20253;-84
2023/03/21 00:46:06;;;;;;;4.10;2.60;;;7.70;99.90;;;;;;5055000;28;20191;-84
2023/03/21 00:48:32;;;;;;;4.80;2.97;;;7.70;99.90;;;;;;5055259;28;20196;-84
2023/03/21 00:50:59;;;;;;;4.50;2.70;;;7.70;99.90;;;;;;5056308;28;20289;-84
2023/03/21 00:53:26;;;;;;;6.60;3.10;;;7.70;99.90;;;;;;5054818;28;20177;-84
2023/03/21 00:55:51;;;;;;;6.07;2.80;;;7.70;99.90;;;;;;5056230;28;20235;-84
2023/03/21 00:58:17;;;;;;;5.23;3.13;;;7.70;99.90;;;;;;5055925;28;20185;-84
2023/03/21 01:00:43;;;;;;;5.47;2.87;;;7.70;99.90;;;;;;5055941;28;20178;-84
2023/03/21 01:03:11;;;;;;;6.20;3.20;;;7.70;99.90;;;;;;5055901;28;20172;-84
2023/03/21 01:08:26;;;;;;;4.97;3.00;;;7.70;99.90;;;;;;5056167;28;20199;-84
2023/03/21 01:10:52;;;;;;;5.00;3.30;;;7.70;99.90;;;;;;5054684;28;20198;-83
2023/03/21 01:13:20;;;;;;;4.57;3.47;;;7.70;99.90;;;;;;5055514;28;20184;-84
2023/03/21 01:15:52;;;;;;;4.07;2.97;;;7.70;99.90;;;;;;5054899;28;20205;-84
2023/03/21 01:18:20;;;;;;;6.10;3.30;;;7.70;99.90;;;;;;5056322;28;20168;-84
2023/03/21 01:20:46;;;;;;;5.30;3.23;;;7.70;99.90;;;;;;5055584;28;20188;-83
2023/03/21 01:23:14;;;;;;;5.77;3.37;;;7.70;99.90;;;;;;5056856;28;20201;-84
2023/03/21 01:25:40;;;;;;;5.47;3.30;;;7.70;99.90;;;;;;5055959;28;20613;-84
2023/03/21 01:28:06;;;;;;;5.17;2.90;;;7.70;99.90;;;;;;5055201;28;20178;-84
2023/03/21 01:30:31;;;;;;;5.33;3.50;;;7.70;99.90;;;;;;5055997;28;20190;-85
2023/03/21 01:32:57;;;;;;;3.70;2.73;;;7.70;99.90;;;;;;5055075;28;20193;-84
2023/03/21 01:35:23;;;;;;;3.67;2.60;;;7.70;99.90;;;;;;5055473;28;20224;-84
2023/03/21 01:37:50;;;;;;;4.37;2.90;;;7.70;99.90;;;;;;5055258;28;20268;-84
2023/03/21 01:40:19;;;;;;;4.40;3.23;;;7.70;99.90;;;;;;5056272;28;20591;-85
2023/03/21 01:42:45;;;;;;;3.67;2.60;;;7.80;99.90;;;;;;5056027;28;20202;-83
2023/03/21 01:45:48;;;;;;;5.00;3.40;;;7.80;99.90;;;;;;5054791;28;20747;-84
2023/03/21 01:48:14;;;;;;;7.50;3.00;;;7.80;99.90;;;;;;5055102;28;20184;-83
2023/03/21 01:50:41;;;;;;;5.00;2.97;;;7.80;99.90;;;;;;5055999;28;20184;-85
2023/03/21 01:53:07;;;;;;;4.27;3.10;;;7.80;99.90;;;;;;5055096;28;20181;-84
2023/03/21 01:55:35;;;;;;;6.83;3.00;;;7.80;99.90;;;;;;5056818;28;20274;-84
2023/03/21 01:58:03;;;;;;;5.23;2.43;;;7.80;99.90;;;;;;5057805;28;20242;-84
2023/03/21 02:00:30;;;;;;;6.60;3.07;;;7.80;99.90;;;;;;5058009;28;20201;-84
2023/03/21 02:03:00;;;;;;;5.83;2.93;;;7.80;99.90;;;;;;5057992;28;20174;-85
2023/03/21 02:06:03;;;;;;;4.67;3.00;;;7.70;99.90;;;;;;5058674;28;20182;-84
2023/03/21 02:08:31;;;;;;;6.30;3.10;;;7.80;99.90;;;;;;5058755;28;20197;-84
2023/03/21 02:10:57;;;;;;;4.17;2.73;;;7.70;99.90;;;;;;5058833;28;20284;-84
2023/03/21 02:13:23;;;;;;;8.03;3.00;;;7.80;99.90;;;;;;5058547;28;20241;-84
2023/03/21 02:15:57;;;;;;;4.77;3.20;;;7.80;99.90;;;;;;5057883;28;20622;-84
2023/03/21 02:18:22;;;;;;;4.03;2.80;;;7.80;99.90;;;;;;5059354;28;20269;-84
2023/03/21 02:21:27;;;;;;;4.33;3.00;;;7.80;99.90;;;;;;5058544;28;20226;-84
2023/03/21 02:24:21;;;;;;;6.53;2.73;;;7.80;99.90;;;;;;5027297;28;20676;-84
2023/03/21 02:27:10;;;;;;;4.70;2.93;;;7.80;99.90;;;;;;5059246;28;20159;-84
2023/03/21 02:29:57;;;;;;;4.73;2.97;;;7.80;99.90;;;;;;5058797;28;20194;-83
2023/03/21 02:32:45;;;;;;;7.17;2.70;;;7.80;99.90;;;;;;5057816;28;20198;-83
2023/03/21 02:35:21;;;;;;;6.07;2.97;;;7.70;99.90;;;;;;5059643;28;20189;-84
2023/03/21 02:38:09;;;;;;;4.53;2.77;;;7.80;99.90;;;;;;5058318;28;20169;-83
2023/03/21 02:40:48;;;;;;;5.30;2.90;;;7.80;99.90;;;;;;5057638;28;20185;-84
2023/03/21 02:43:24;;;;;;;6.73;3.00;;;7.70;99.90;;;;;;5075448;22;20238;-80
2023/03/21 02:46:19;;;;;;;6.27;3.13;;;7.70;99.90;;;;;;5051520;28;20177;-80
2023/03/21 02:48:51;;;;;;;4.17;2.70;;;7.70;99.90;;;;;;5057325;28;20184;-81
2023/03/21 02:51:20;;;;;;;4.43;2.97;;;7.70;99.90;;;;;;5057769;28;20174;-83
2023/03/21 02:53:50;;;;;;;6.33;3.03;;;7.70;99.90;;;;;;5043716;28;20186;-80
2023/03/21 02:56:19;;;;;;;4.70;3.10;;;7.70;99.90;;;;;;5059639;28;20252;-81
2023/03/21 02:58:45;;;;;;;5.90;3.10;;;7.70;99.90;;;;;;5055815;28;20655;-81
2023/03/21 03:01:11;;;;;;;5.27;2.87;;;7.70;99.90;;;;;;5051342;28;20177;-82
2023/03/21 03:03:38;;;;;;;5.37;3.00;;;7.70;99.90;;;;;;5036287;28;20190;-81
2023/03/21 03:06:27;;;;;;;4.30;2.90;;;7.70;99.90;;;;;;5048466;28;20182;-81
2023/03/21 03:09:08;;;;;;;4.57;2.90;;;7.70;99.90;;;;;;5022134;28;20270;-83
2023/03/21 03:11:38;;;;;;;4.20;3.10;;;7.80;99.90;;;;;;5022636;28;20180;-81
2023/03/21 03:14:25;;;;;;;4.07;2.90;;;7.70;99.90;;;;;;5014586;28;20258;-81
2023/03/21 03:17:17;;;;;;;4.53;2.90;;;7.70;99.90;;;;;;5015915;28;20193;-80
2023/03/21 03:20:10;;;;;;;5.57;3.03;;;7.70;99.90;;;;;;5014379;28;20250;-81
2023/03/21 03:22:49;;;;;;;6.23;3.67;;;7.70;99.90;;;;;;5016441;28;20267;-82
2023/03/21 03:25:20;;;;;;;5.80;2.93;;;7.70;99.90;;;;;;5014731;28;20549;-81
2023/03/21 03:27:48;;;;;;;3.67;2.70;;;7.70;99.90;;;;;;5016304;28;20737;-80
2023/03/21 03:30:15;;;;;;;4.20;2.90;;;7.60;99.90;;;;;;5022759;28;20174;-81
2023/03/21 03:33:02;;;;;;;6.13;2.90;;;7.60;99.90;;;;;;5043776;28;20266;-81
2023/03/21 03:35:28;;;;;;;5.63;3.47;;;7.60;99.90;;;;;;5050055;28;20195;-82
2023/03/21 03:37:58;;;;;;;5.37;2.97;;;7.60;99.90;;;;;;5050212;28;20178;-81
2023/03/21 03:40:38;;;;;;;6.17;3.30;;;7.60;99.90;;;;;;5049571;28;20247;-82
2023/03/21 03:43:15;;;;;;;8.03;3.20;;;7.60;99.90;;;;;;5034730;28;20206;-82
2023/03/21 03:45:54;;;;;;;5.67;3.03;;;7.50;99.90;;;;;;5050082;28;20534;-82
2023/03/21 03:48:33;;;;;;;4.93;3.00;;;7.60;99.90;;;;;;5049862;28;20225;-82
2023/03/21 03:51:06;;;;;;;5.63;3.10;;;7.60;99.90;;;;;;5049666;28;20200;-82
2023/03/21 03:53:39;;;;;;;4.67;3.17;;;7.60;99.90;;;;;;5033516;28;20222;-82
2023/03/21 03:56:10;;;;;;;3.97;3.07;;;7.50;99.90;;;;;;5049636;28;20202;-83
2023/03/21 03:58:37;;;;;;;4.60;2.83;;;7.60;99.90;;;;;;5034594;28;20234;-82
2023/03/21 04:01:06;;;;;;;7.17;2.77;;;7.60;99.90;;;;;;5049170;28;20173;-82
2023/03/21 04:03:34;;;;;;;6.17;3.17;;;7.50;99.90;;;;;;5050113;28;20205;-82
2023/03/21 04:05:59;;;;;;;5.93;3.20;;;7.50;99.90;;;;;;5049993;28;20182;-82
2023/03/21 04:08:25;;;;;;;7.40;3.80;;;7.60;99.90;;;;;;5034671;28;20550;-82
2023/03/21 04:10:51;;;;;;;4.07;2.90;;;7.60;99.90;;;;;;5048851;28;20325;-82
2023/03/21 04:13:16;;;;;;;6.17;3.17;;;7.60;99.90;;;;;;5049650;28;20551;-82
2023/03/21 04:15:44;;;;;;;5.27;3.20;;;7.60;99.90;;;;;;5049999;28;20199;-81
2023/03/21 04:18:09;;;;;;;6.23;3.10;;;7.50;99.90;;;;;;5033972;28;20206;-82
2023/03/21 04:20:35;;;;;;;5.13;2.90;;;7.60;99.90;;;;;;5050015;28;20176;-82
2023/03/21 04:23:00;;;;;;;4.53;2.80;;;7.60;99.90;;;;;;5050152;28;20186;-82
2023/03/21 04:25:27;;;;;;;5.70;2.87;;;7.60;99.90;;;;;;5049846;28;20176;-82
2023/03/21 04:27:54;;;;;;;4.97;2.73;;;7.60;99.90;;;;;;5049531;28;20210;-82
2023/03/21 04:30:23;;;;;;;4.00;2.70;;;7.70;99.90;;;;;;5034441;28;20247;-82
2023/03/21 04:32:52;;;;;;;4.80;2.70;;;7.60;99.90;;;;;;5034757;28;20194;-82
2023/03/21 04:35:19;;;;;;;3.87;2.60;;;7.60;99.90;;;;;;5049910;28;20293;-82
2023/03/21 04:37:45;;;;;;;6.47;2.70;;;7.60;99.90;;;;;;5035331;28;20715;-82
2023/03/21 04:40:11;;;;;;;4.27;2.90;;;7.60;99.90;;;;;;5048956;28;20281;-82
2023/03/21 04:42:36;;;;;;;4.80;2.80;;;7.60;99.90;;;;;;5050331;28;20261;-83
2023/03/21 04:45:03;;;;;;;4.70;2.60;;;7.50;99.90;;;;;;5049959;28;20182;-82
2023/03/21 04:47:29;;;;;;;4.43;2.90;;;7.50;99.90;;;;;;5050184;28;20182;-82
2023/03/21 04:49:55;;;;;;;4.43;2.67;;;7.60;99.90;;;;;;5034279;28;20175;-82
2023/03/21 04:52:21;;;;;;;5.07;2.90;;;7.60;99.90;;;;;;5050045;28;20202;-82
2023/03/21 04:54:47;;;;;;;6.67;2.77;;;7.50;99.90;;;;;;5032989;28;20580;-82
2023/03/21 04:57:13;;;;;;;3.87;2.63;;;7.50;99.90;;;;;;5041453;28;20617;-82
2023/03/21 04:59:38;;;;;;;5.80;2.83;;;7.50;99.90;;;;;;5014974;28;20169;-83
2023/03/21 05:02:04;;;;;;;8.13;3.00;;;7.60;99.90;;;;;;5014683;28;20249;-82
2023/03/21 05:04:30;;;;;;;4.03;2.70;;;7.60;99.90;;;;;;5014440;28;20171;-83
2023/03/21 05:06:56;;;;;;;4.60;2.77;;;7.60;99.90;;;;;;5014548;28;20178;-82
2023/03/21 05:09:22;;;;;;;5.13;2.90;;;7.60;99.90;;;;;;5014400;28;20190;-82
2023/03/21 05:11:49;;;;;;;6.37;2.93;;;7.50;99.90;;;;;;5013656;28;20191;-83
2023/03/21 05:14:25;;;;;;;3.77;2.90;;;7.50;99.90;;;;;;5015793;28;20192;-82
2023/03/21 05:16:56;;;;;;;4.73;2.60;;;7.50;99.90;;;;;;5016132;28;20605;-83
2023/03/21 05:19:33;;;;;;;5.27;3.17;;;7.50;99.90;;;;;;5015110;28;20242;-82
2023/03/21 05:22:04;;;;;;;4.50;3.00;;;7.50;99.90;;;;;;5015701;28;20214;-82
2023/03/21 05:24:31;;;;;;;6.00;3.03;;;7.50;99.90;;;;;;5015109;28;20814;-82
2023/03/21 05:27:00;;;;;;;6.57;2.80;;;7.50;99.90;;;;;;5016919;28;20216;-82
2023/03/21 05:29:31;;;;;;;5.30;2.80;;;7.50;99.90;;;;;;5017304;28;20175;-82
2023/03/21 05:31:57;;;;;;;5.93;3.03;;;7.50;99.90;;;;;;5020134;28;20213;-82
2023/03/21 05:34:24;;;;;;;3.57;2.60;;;7.50;99.90;;;;;;5019536;28;20168;-82
2023/03/21 05:36:50;;;;;;;4.83;2.67;;;7.50;99.90;;;;;;5019424;28;20171;-81
2023/03/21 05:39:15;;;;;;;4.67;2.90;;;7.50;99.90;;;;;;5020532;28;20200;-82
2023/03/21 05:41:41;;;;;;;5.00;2.93;;;7.50;99.90;;;;;;5025645;28;20210;-82
2023/03/21 05:44:06;;;;;;;5.97;2.90;;;7.50;99.90;;;;;;5027510;28;20171;-83
2023/03/21 05:46:32;;;;;;;5.33;2.90;;;7.50;99.90;;;;;;5042788;28;20189;-83
2023/03/21 05:48:57;;;;;;;6.00;2.63;;;7.50;99.90;;;;;;5028449;28;20179;-83
2023/03/21 05:51:23;;;;;;;2.97;2.50;;;7.60;99.90;;;;;;5028298;28;20186;-84
2023/03/21 05:53:49;;;;;;;4.33;2.70;;;7.60;99.90;;;;;;5018157;28;20184;-81
2023/03/21 05:56:15;;;;;;;3.60;2.60;;;7.60;99.90;;;;;;5018448;28;20217;-81
2023/03/21 05:58:41;;;;;;;5.17;2.83;;;7.60;99.90;;;;;;5018387;28;20186;-81
2023/03/21 06:01:06;;;;;;;7.23;3.17;;;7.50;99.90;;;;;;5032622;28;20175;-82
2023/03/21 06:03:32;;;;;;;4.93;2.47;;;7.60;99.90;;;;;;5018424;28;20254;-82
2023/03/21 06:05:58;;;;;;;4.27;2.60;;;7.60;99.90;;;;;;5032831;28;20179;-81
2023/03/21 06:08:23;;;;;;;6.23;3.07;;;7.60;99.90;;;;;;5032954;28;20278;-83
2023/03/21 06:10:49;;;;;;;7.03;2.90;;;7.70;99.90;;;;;;5015619;28;20182;-83
2023/03/21 06:13:14;;;;;;;4.40;2.70;;;7.70;99.90;;;;;;5016612;28;20227;-84
2023/03/21 06:15:40;;;;;;;4.53;2.90;;;7.70;99.90;;;;;;5015516;28;20207;-83
2023/03/21 06:18:06;;;;;;;6.17;2.73;;;7.70;99.90;;;;;;5016203;28;20262;-84
2023/03/21 06:20:32;;;;;;;4.20;2.83;;;7.70;99.90;;;;;;5015129;28;20175;-84
2023/03/21 06:22:57;;;;;;;5.80;2.77;;;7.70;99.90;;;;;;5015481;28;20313;-83
2023/03/21 06:25:23;;;;;;;6.03;2.73;;;7.80;99.90;;;;;;5014851;28;20678;-83
2023/03/21 06:27:49;;;;;;;4.27;2.73;;;7.80;99.90;;;;;;5016741;28;20551;-84
2023/03/21 06:30:16;;;;;;;5.80;2.70;;;7.80;99.90;;;;;;5016110;28;20178;-82
2023/03/21 06:32:42;;;;;;;6.73;2.87;;;7.90;99.90;;;;;;5021556;28;20285;-82
2023/03/21 06:35:08;;;;;;;5.43;2.80;;;8.00;99.90;;;;;;5028341;28;20297;-81
2023/03/21 06:37:33;;;;;;;4.27;2.80;;;8.00;99.90;;;;;;5036516;28;20282;-81
2023/03/21 06:39:59;;;;;;;6.77;2.80;;;8.00;99.90;;;;;;5050934;28;20179;-82
2023/03/21 06:42:24;;;;;;;7.50;3.20;;;8.00;99.90;;;;;;5035644;28;20206;-82
2023/03/21 06:44:50;;;;;;;5.67;2.90;;;8.00;99.90;;;;;;5051726;28;20176;-82
2023/03/21 06:47:15;;;;;;;5.13;3.10;;;8.00;99.90;;;;;;5051690;28;20178;-82
2023/03/21 06:49:42;;;;;;;4.87;2.93;;;8.10;99.90;;;;;;5051619;28;20208;-83
2023/03/21 06:52:08;;;;;;;4.60;3.00;;;8.10;99.90;;;;;;5036512;28;20194;-82
2023/03/21 06:54:35;;;;;;;5.80;2.60;;;8.10;99.90;;;;;;5051570;28;20174;-82
2023/03/21 06:57:00;;;;;;;5.37;3.00;;;8.20;99.90;;;;;;5035104;28;20177;-82
2023/03/21 06:59:26;;;;;;;8.97;3.13;;;8.20;99.90;;;;;;5051928;28;20178;-82
2023/03/21 07:01:52;;;;;;;4.63;2.70;;;8.20;99.90;;;;;;5035850;28;20186;-82
2023/03/21 07:04:17;;;;;;;6.00;3.40;;;8.20;99.90;;;;;;5036744;28;20168;-82
2023/03/21 07:06:43;;;;;;;4.73;2.93;;;8.30;99.90;;;;;;5051498;28;20264;-83
2023/03/21 07:09:08;;;;;;;7.40;3.17;;;8.20;99.90;;;;;;5036768;28;20248;-82
2023/03/21 07:11:35;;;;;;;6.03;3.00;;;8.30;99.90;;;;;;5050961;28;20178;-82
2023/03/21 07:14:01;;;;;;;6.50;2.90;;;8.30;99.90;;;;;;5036466;28;20611;-81
2023/03/21 07:16:27;;;;;;;6.90;2.87;;;8.30;99.90;;;;;;5026918;28;20216;-79
2023/03/21 07:18:52;;;;;;;5.27;2.40;;;8.30;99.90;;;;;;5017706;28;20184;-81
2023/03/21 07:21:18;;;;;;;6.47;3.07;;;8.30;99.90;;;;;;5015541;28;20202;-82
2023/03/21 07:23:45;;;;;;;6.57;2.73;;;8.40;99.90;;;;;;5029870;28;20179;-82
2023/03/21 07:26:11;;;;;;;5.67;3.00;;;8.40;99.90;;;;;;5029380;28;20192;-81
2023/03/21 07:28:37;;;;;;;4.90;2.80;;;8.60;99.90;;;;;;5030079;28;20177;-82
2023/03/21 07:31:05;;;;;;;4.43;3.10;;;8.60;99.90;;;;;;5029285;28;20181;-82
2023/03/21 07:33:31;;;;;;;4.83;2.77;;;8.70;99.90;;;;;;5013504;28;20726;-81
2023/03/21 07:35:57;;;;;;;6.13;2.80;;;8.80;99.90;;;;;;5030054;28;20210;-82
2023/03/21 07:38:24;;;;;;;5.77;2.83;;;8.90;99.90;;;;;;5031429;28;20270;-82
2023/03/21 07:40:49;;;;;;;5.40;2.60;;;9.00;99.90;;;;;;5016880;28;20185;-82
2023/03/21 07:43:16;;;;;;;3.87;2.87;;;9.20;99.90;;;;;;5016374;28;20217;-81
2023/03/21 07:45:43;;;;;;;4.90;2.97;;;9.30;99.90;;;;;;5032630;28;20656;-81
2023/03/21 07:48:11;;;;;;;6.30;2.93;;;9.30;99.90;;;;;;5017763;28;20716;-81
2023/03/21 07:50:37;;;;;;;5.83;3.10;;;9.40;99.90;;;;;;5032094;28;20177;-82
2023/03/21 07:53:03;;;;;;;6.77;3.00;;;9.50;99.90;;;;;;5031960;28;20201;-82
2023/03/21 07:55:29;;;;;;;5.77;3.20;;;9.50;99.90;;;;;;5032679;28;20210;-82
2023/03/21 07:57:54;;;;;;;6.23;3.30;;;9.50;99.90;;;;;;5018117;28;20170;-82
2023/03/21 08:00:23;;;;;;;5.87;3.30;;;9.50;99.90;;;;;;5018108;28;20167;-82
2023/03/21 08:02:53;;;;;;;5.13;3.00;;;9.50;99.90;;;;;;5018278;28;20202;-82
2023/03/21 08:05:39;;;;;;;5.53;3.07;;;9.60;99.90;;;;;;5034314;28;20182;-81
2023/03/21 08:08:06;;;;;;;6.47;3.10;;;9.70;99.90;;;;;;5018256;28;20246;-82
2023/03/21 08:10:32;;;;;;;7.47;3.10;;;9.90;99.90;;;;;;5018266;28;20229;-81
2023/03/21 08:12:58;;;;;;;5.03;2.83;;;10.00;99.90;;;;;;5033708;28;20252;-81
2023/03/21 08:15:24;;;;;;;5.30;3.70;;;10.20;99.90;;;;;;5033451;28;20214;-79
2023/03/21 08:17:49;;;;;;;6.23;3.27;;;10.30;99.90;;;;;;5015761;28;20584;-80
2023/03/21 08:20:20;;;;;;;3.50;2.83;;;10.30;99.90;;;;;;5017992;28;20184;-81
2023/03/21 08:22:46;;;;;;;7.27;3.60;;;10.30;99.90;;;;;;5021636;28;20214;-82
2023/03/21 08:25:12;;;;;;;7.73;3.87;;;10.40;99.90;;;;;;5021760;28;20190;-82
2023/03/21 08:27:40;;;;;;;4.20;3.20;;;10.50;99.90;;;;;;5036508;28;20247;-82
2023/03/21 08:30:07;;;;;;;8.63;4.00;;;10.50;99.90;;;;;;5020813;28;20178;-83
2023/03/21 08:32:32;;;;;;;5.07;3.10;;;10.60;99.90;;;;;;5021366;28;20612;-83
2023/03/21 08:35:00;;;;;;;7.03;4.07;;;10.70;99.90;;;;;;5036740;28;20218;-83
2023/03/21 08:37:27;;;;;;;4.97;3.50;;;10.80;99.90;;;;;;5037884;28;20189;-83
2023/03/21 08:39:52;;;;;;;6.97;3.60;;;10.90;99.90;;;;;;5023538;28;20213;-80
2023/03/21 08:42:19;;;;;;;5.83;3.67;;;11.10;99.90;;;;;;5056229;22;20619;-80
2023/03/21 08:44:45;;;;;;;5.70;3.53;;;11.10;99.90;;;;;;5056171;28;20196;-82
2023/03/21 08:47:10;;;;;;;6.00;4.13;;;11.20;99.90;;;;;;5056876;28;20178;-81
2023/03/21 08:49:36;;;;;;;5.40;3.60;;;11.20;99.90;;;;;;5052233;28;20697;-79
2023/03/21 08:52:03;;;;;;;6.67;3.40;;;11.10;99.90;;;;;;5054707;28;20178;-83
2023/03/21 08:54:29;;;;;;;7.40;3.70;;;11.10;99.90;;;;;;5053346;28;20188;-84
2023/03/21 08:56:54;;;;;;;6.50;3.57;;;11.00;99.90;;;;;;5053166;28;20170;-82
2023/03/21 08:59:20;;;;;;;7.17;4.10;;;11.10;99.90;;;;;;5051882;28;20169;-85
2023/03/21 09:01:45;;;;;;;5.57;3.80;;;11.20;99.90;;;;;;5050953;28;20166;-84
2023/03/21 09:04:11;;;;;;;7.13;3.97;;;11.20;99.90;;;;;;5052542;28;20170;-82
2023/03/21 09:06:44;;;;;;;5.70;3.50;;;11.40;99.90;;;;;;5057881;28;20659;-82
2023/03/21 09:09:11;;;;;;;8.47;3.70;;;11.50;99.90;;;;;;5056098;28;20173;-82
2023/03/21 09:11:37;;;;;;;8.23;4.00;;;11.70;99.90;;;;;;5057267;28;20166;-84
2023/03/21 09:14:03;;;;;;;7.10;4.10;;;11.70;99.90;;;;;;5054961;28;20190;-85
2023/03/21 09:16:28;;;;;;;5.90;3.70;;;11.70;99.90;;;;;;5057079;28;20231;-88
2023/03/21 09:18:55;;;;;;;7.00;3.80;;;11.70;99.90;;;;;;5056167;28;20177;-84
2023/03/21 09:21:22;;;;;;;4.97;3.80;;;11.80;99.90;;;;;;5054215;28;20660;-84
2023/03/21 09:23:55;;;;;;;7.13;3.70;;;11.90;99.90;;;;;;5055894;28;20219;-84
2023/03/21 09:26:22;;;;;;;6.50;3.90;;;11.80;99.90;;;;;;5055997;28;20177;-83
2023/03/21 09:28:48;;;;;;;6.30;3.93;;;11.90;99.90;;;;;;5056297;28;20197;-85
2023/03/21 09:31:21;;;;;;;6.73;3.70;;;11.90;99.90;;;;;;5054127;28;20731;-83
2023/03/21 09:33:54;;;;;;;7.57;4.10;;;11.90;99.90;;;;;;5056455;28;20198;-82
2023/03/21 09:36:23;;;;;;;5.63;4.00;;;11.80;99.90;;;;;;5055859;28;20192;-83
2023/03/21 09:38:50;;;;;;;6.37;4.20;;;11.70;99.90;;;;;;5055762;28;20687;-84
2023/03/21 09:41:41;;;;;;;8.90;4.47;;;11.70;99.90;;;;;;5053796;28;20177;-86
2023/03/21 09:44:36;;;;;;;8.90;4.83;;;11.80;99.90;;;;;;5055975;28;20267;-82
2023/03/21 09:47:16;;;;;;;7.37;4.20;;;12.00;99.90;;;;;;5055505;28;20255;-84
2023/03/21 09:49:48;;;;;;;6.40;4.37;;;12.00;99.90;;;;;;5069725;28;20170;-85
2023/03/21 09:52:36;;;;;;;6.33;4.53;;;12.00;99.90;;;;;;5055621;28;20269;-84
2023/03/21 09:55:17;;;;;;;7.27;4.60;;;12.10;99.90;;;;;;5055547;28;20205;-85
2023/03/21 09:57:49;;;;;;;7.23;4.30;;;12.10;99.90;;;;;;5054354;28;20254;-84
2023/03/21 10:00:26;;;;;;;9.67;4.43;;;12.30;99.90;;;;;;5053882;28;20184;-84
2023/03/21 10:02:58;;;;;;;8.87;4.90;;;12.20;99.90;;;;;;5054715;28;20193;-84
2023/03/21 10:05:27;;;;;;;6.33;4.17;;;12.10;99.90;;;;;;5054226;28;20162;-85
2023/03/21 10:08:07;;;;;;;7.13;4.40;;;12.10;99.90;;;;;;5053157;28;20182;-86
2023/03/21 10:11:14;;;;;;;8.53;4.53;;;12.10;99.90;;;;;;5035584;28;20165;-84
2023/03/21 10:13:48;;;;;;;10.13;4.73;;;12.10;99.90;;;;;;5034305;28;20218;-85
2023/03/21 10:16:36;;;;;;;9.27;4.60;;;12.30;99.90;;;;;;5034535;28;20225;-85
2023/03/21 10:19:09;;;;;;;8.37;4.77;;;12.40;99.90;;;;;;5034436;28;20171;-82
2023/03/21 10:21:38;;;;;;;7.13;4.60;;;12.60;99.90;;;;;;5040221;28;20174;-84
2023/03/21 10:24:05;;;;;;;9.20;4.60;;;12.80;99.90;;;;;;5047044;28;20266;-82
2023/03/21 10:26:31;;;;;;;8.57;4.77;;;12.80;99.90;;;;;;5053927;28;20599;-85
2023/03/21 10:28:59;;;;;;;9.23;4.57;;;12.90;99.90;;;;;;5055478;28;20652;-83
2023/03/21 10:31:28;;;;;;;8.13;4.73;;;12.80;99.90;;;;;;5054723;28;20170;-83
2023/03/21 10:33:57;;;;;;;11.90;5.03;;;12.70;99.90;;;;;;5054010;28;20198;-83
2023/03/21 10:36:29;;;;;;;7.97;5.17;;;12.70;99.90;;;;;;5054057;28;20276;-83
2023/03/21 10:39:01;;;;;;;6.67;4.80;;;12.80;99.90;;;;;;5053913;28;20174;-83
2023/03/21 10:41:27;;;;;;;7.43;4.97;;;12.80;99.90;;;;;;5051856;28;20177;-83
2023/03/21 10:44:09;;;;;;;7.17;4.70;;;12.90;99.90;;;;;;5034152;28;20692;-83
2023/03/21 10:46:35;;;;;;;8.20;4.30;;;13.00;99.90;;;;;;5037229;28;20653;-83
2023/03/21 10:49:00;;;;;;;7.87;4.60;;;13.10;99.90;;;;;;5053556;28;20227;-85
2023/03/21 10:51:31;;;;;;;8.77;4.50;;;13.10;99.90;;;;;;5053003;28;20174;-88
2023/03/21 10:54:12;;;;;;;5.90;4.13;;;13.30;99.90;;;;;;5054854;28;20204;-85
2023/03/21 10:56:44;;;;;;;9.03;4.73;;;13.30;99.90;;;;;;5053204;28;20228;-84
2023/03/21 10:59:17;;;;;;;7.30;4.10;;;13.10;99.90;;;;;;5054810;28;20177;-85
2023/03/21 11:01:48;;;;;;;10.43;4.67;;;13.20;99.90;;;;;;5053820;28;20639;-86
2023/03/21 11:04:16;;;;;;;8.00;4.40;;;13.30;99.90;;;;;;5054026;28;20189;-84
2023/03/21 11:06:45;;;;;;;7.77;3.90;;;13.20;99.90;;;;;;5053319;28;20207;-86
2023/03/21 11:09:20;;;;;;;9.00;4.13;;;13.10;99.90;;;;;;5052997;28;20198;-85
2023/03/21 11:11:52;;;;;;;6.30;4.30;;;13.10;99.90;;;;;;5052749;28;20252;-84
2023/03/21 11:14:38;;;;;;;6.97;3.83;;;13.20;99.90;;;;;;5049599;28;20182;-83
2023/03/21 11:17:28;;;;;;;7.60;4.30;;;13.00;99.90;;;;;;5052849;28;20193;-83
2023/03/21 11:20:10;;;;;;;7.57;4.23;;;13.10;99.90;;;;;;5034147;28;20212;-82
2023/03/21 11:22:42;;;;;;;8.40;4.00;;;13.20;99.90;;;;;;5034771;28;20225;-83
2023/03/21 11:25:18;;;;;;;7.70;4.77;;;13.10;99.90;;;;;;5036027;28;20748;-82
2023/03/21 11:27:53;;;;;;;7.73;4.60;;;12.90;99.90;;;;;;5034351;28;20587;-82
2023/03/21 11:30:25;;;;;;;8.53;4.77;;;12.90;99.90;;;;;;5034216;28;20714;-82
2023/03/21 11:32:57;;;;;;;7.27;4.27;;;12.80;99.90;;;;;;5034679;28;20194;-82
2023/03/21 11:35:31;;;;;;;7.13;4.43;;;12.80;99.90;;;;;;5035845;28;20660;-82
2023/03/21 11:37:57;;;;;;;8.90;4.70;;;12.80;99.90;;;;;;5034837;28;20223;-82
2023/03/21 11:40:28;;;;;;;7.70;5.13;;;12.80;99.90;;;;;;5033703;28;20262;-82
2023/03/21 11:42:55;;;;;;;7.93;5.33;;;12.80;99.90;;;;;;5035546;28;20260;-82
2023/03/21 11:45:22;;;;;;;7.40;4.90;;;12.70;99.90;;;;;;5035568;28;20202;-81
2023/03/21 11:47:50;;;;;;;8.20;5.07;;;12.60;99.90;;;;;;5048744;28;20185;-82
2023/03/21 11:50:18;;;;;;;8.13;4.90;;;12.50;99.90;;;;;;5053300;28;20169;-82
2023/03/21 11:53:19;;;;;;;9.47;5.20;;;12.50;99.90;;;;;;5055443;28;20193;-82
2023/03/21 11:56:15;;;;;;;7.70;4.47;;;12.60;99.90;;;;;;5055145;28;20188;-83
2023/03/21 11:58:55;;;;;;;8.83;5.23;;;12.60;99.90;;;;;;5053888;28;20252;-82
2023/03/21 12:01:30;;;;;;;9.60;4.80;;;12.60;99.90;;;;;;5053704;28;20235;-82
2023/03/21 12:04:07;;;;;;;7.03;4.60;;;12.60;99.90;;;;;;5054967;28;20199;-81
2023/03/21 12:06:55;;;;;;;6.90;4.63;;;12.50;99.90;;;;;;5054896;28;20162;-82
2023/03/21 12:09:42;;;;;;;7.70;4.60;;;12.50;99.90;;;;;;5054790;28;20167;-82
2023/03/21 12:12:13;;;;;;;8.30;4.57;;;12.50;99.90;;;;;;5053778;28;20240;-83
2023/03/21 12:14:44;;;;;;;7.70;5.37;;;12.50;99.90;;;;;;5055014;28;20176;-82
2023/03/21 12:17:34;;;;;;;8.97;4.67;;;12.50;99.90;;;;;;5053709;28;20216;-82
2023/03/21 12:20:13;;;;;;;7.93;4.20;;;12.50;99.90;;;;;;5054436;28;20169;-81
2023/03/21 12:22:56;;;;;;;12.10;4.97;;;12.50;99.90;;;;;;5053416;28;20189;-82
2023/03/21 12:25:53;;;;;;;10.67;4.90;;;12.50;99.90;;;;;;5053547;28;20180;-83
2023/03/21 12:28:25;;;;;;;9.47;4.37;;;12.50;99.90;;;;;;5053611;28;20174;-82
2023/03/21 12:31:25;;;;;;;7.53;4.23;;;12.40;99.90;;;;;;5054036;28;20170;-82
2023/03/21 12:34:00;;;;;;;8.03;4.57;;;12.50;99.90;;;;;;5053479;28;20189;-82
2023/03/21 12:36:35;;;;;;;9.53;4.87;;;12.50;99.90;;;;;;5053136;28;20271;-82
2023/03/21 12:39:27;;;;;;;12.60;5.13;;;12.60;99.90;;;;;;5052636;28;20177;-83
2023/03/21 12:41:58;;;;;;;7.03;4.73;;;12.50;99.90;;;;;;5053761;28;20178;-83
2023/03/21 12:44:27;;;;;;;8.13;4.80;;;12.50;99.90;;;;;;5053997;28;20166;-82
2023/03/21 12:47:01;;;;;;;8.10;4.70;;;12.30;99.90;;;;;;5065999;28;20581;-86
2023/03/21 12:49:50;;;;;;;9.50;5.07;;;12.20;99.90;;;;;;5071402;28;20701;-85
2023/03/21 12:52:24;;;;;;;9.87;5.97;;;12.00;99.90;;;;;;5026536;28;20308;-81
2023/03/21 12:54:59;;;;;;;15.90;10.50;;;11.90;99.90;;;;;;5074247;28;20188;-81
2023/03/21 12:57:34;;;;;;;6.50;5.07;;;11.90;99.90;;;;;;5074250;28;20145;-82
2023/03/21 13:00:14;;;;;;;8.03;4.87;;;11.90;99.90;;;;;;5073469;28;20193;-82
2023/03/21 13:02:45;;;;;;;6.83;4.57;;;11.90;99.90;;;;;;5074273;28;20283;-82
2023/03/21 13:05:29;;;;;;;8.10;4.97;;;11.90;99.90;;;;;;5072764;28;20176;-81
2023/03/21 13:08:05;;;;;;;6.73;4.20;;;11.80;99.90;;;;;;5072774;28;20199;-82
2023/03/21 13:10:32;;;;;;;6.53;4.20;;;11.70;99.90;;;;;;5073366;28;20671;-81
2023/03/21 13:13:38;;;;;;;7.03;4.37;;;11.70;99.90;;;;;;5072467;28;20197;-82
2023/03/21 13:16:22;;;;;;;8.53;4.20;;;11.60;99.90;;;;;;5058746;28;20349;-81